Time;durP1;ratioP1;P1;durP2;ratioP2;P2;SDS_P1;SDS_P2;PMS_P1;PMS_P2;Temp;Humidity;BMP_temperature;BMP_pressure;BME280_temperature;BME280_humidity;BME280_pressure;Samples;Min_cycle;Max_cycle;Signal;HPM_P1;HPM_P2
2022/05/08 00:01:17;;;;;;;19.58;9.13;;;;;;;10.03;100.00;99333.78;4372588;32;20065;-78
2022/05/08 00:03:44;;;;;;;17.45;8.77;;;;;;;10.23;100.00;99364.84;4372861;32;20043;-78
2022/05/08 00:06:11;;;;;;;18.23;9.02;;;;;;;10.01;100.00;99341.28;4358232;32;20078;-78
2022/05/08 00:08:39;;;;;;;18.55;8.52;;;;;;;9.97;100.00;99329.34;4364507;32;20047;-78
2022/05/08 00:11:06;;;;;;;19.77;8.57;;;;;;;10.28;100.00;99375.72;4376290;32;20047;-78
2022/05/08 00:13:35;;;;;;;25.75;8.95;;;;;;;10.05;100.00;99336.25;4377936;32;20043;-78
2022/05/08 00:16:02;;;;;;;23.83;9.27;;;;;;;10.31;100.00;99375.25;4377439;32;20074;-81
2022/05/08 00:18:29;;;;;;;13.62;7.72;;;;;;;10.23;100.00;99359.47;4378061;32;20055;-77
2022/05/08 00:21:05;;;;;;;21.77;8.38;;;;;;;10.29;100.00;99366.59;4382468;32;20027;-76
2022/05/08 00:23:31;;;;;;;24.20;9.35;;;;;;;10.42;100.00;99378.97;4371219;32;20515;-77
2022/05/08 00:25:58;;;;;;;27.58;8.00;;;;;;;10.31;100.00;99388.72;4370829;32;20508;-87
2022/05/08 00:28:24;;;;;;;22.25;8.80;;;;;;;10.44;100.00;99383.06;4385960;32;20142;-77
2022/05/08 00:30:51;;;;;;;23.58;8.73;;;;;;;10.65;100.00;99364.59;4385525;32;20099;-77
2022/05/08 00:33:17;;;;;;;19.80;8.23;;;;;;;10.56;100.00;99350.69;4384268;32;20098;-77
2022/05/08 00:35:43;;;;;;;30.70;10.85;;;;;;;10.89;100.00;99368.78;4388915;32;20055;-87
2022/05/08 00:38:10;;;;;;;24.92;8.48;;;;;;;10.94;100.00;99375.34;4379218;32;20054;-87
2022/05/08 00:40:37;;;;;;;21.02;8.65;;;;;;;10.89;100.00;99371.47;4393825;32;20066;-78
2022/05/08 00:43:23;;;;;;;32.33;10.75;;;;;;;10.84;100.00;99363.31;4392708;32;20036;-84
2022/05/08 00:45:49;;;;;;;15.80;8.25;;;;;;;11.01;100.00;99365.19;4392375;32;20054;-85
2022/05/08 00:48:16;;;;;;;20.65;9.77;;;;;;;10.74;100.00;99338.91;4376452;32;20048;-78
2022/05/08 00:50:43;;;;;;;36.53;14.50;;;;;;;10.78;100.00;99328.47;4362942;32;20049;-78
2022/05/08 00:53:10;;;;;;;39.30;16.87;;;;;;;11.04;100.00;99368.25;4375889;32;20055;-78
2022/05/08 00:55:37;;;;;;;37.58;15.15;;;;;;;11.02;100.00;99367.66;4375952;32;20046;-84
2022/05/08 00:58:03;;;;;;;34.95;13.15;;;;;;;10.76;100.00;99336.78;4360892;32;20061;-78
2022/05/08 01:00:30;;;;;;;25.55;10.88;;;;;;;10.43;100.00;99289.91;4362849;32;20405;-78
2022/05/08 01:02:59;;;;;;;26.52;10.23;;;;;;;10.65;100.00;99326.91;4362794;32;20028;-78
2022/05/08 01:05:25;;;;;;;30.45;10.57;;;;;;;10.86;100.00;99361.19;4375007;32;20073;-78
2022/05/08 01:07:56;;;;;;;18.33;8.38;;;;;;;10.76;100.00;99357.53;4374020;32;20064;-78
2022/05/08 01:10:23;;;;;;;17.85;8.00;;;;;;;10.86;100.00;99363.88;4375687;32;20090;-77
2022/05/08 01:12:49;;;;;;;14.40;7.25;;;;;;;10.74;100.00;99338.91;4374578;32;20039;-77
2022/05/08 01:15:18;;;;;;;24.42;7.85;;;;;;;10.91;100.00;99376.63;4365319;32;20044;-78
2022/05/08 01:17:46;;;;;;;19.48;7.93;;;;;;;10.75;100.00;99334.34;4355716;32;20123;-85
2022/05/08 01:20:13;;;;;;;17.17;7.75;;;;;;;10.89;100.00;99378.75;4365301;32;20070;-77
2022/05/08 01:22:40;;;;;;;15.57;7.12;;;;;;;10.87;100.00;99370.91;4373833;32;20085;-77
2022/05/08 01:25:07;;;;;;;16.10;7.25;;;;;;;10.88;100.00;99386.03;4374454;32;20051;-77
2022/05/08 01:27:33;;;;;;;21.73;7.93;;;;;;;10.80;100.00;99367.56;4359288;32;20027;-78
2022/05/08 01:30:00;;;;;;;22.37;8.27;;;;;;;10.79;100.00;99374.00;4371054;32;20040;-80
2022/05/08 01:32:26;;;;;;;18.65;8.90;;;;;;;10.80;100.00;99385.59;4373481;32;20089;-77
2022/05/08 01:34:53;;;;;;;14.80;7.55;;;;;;;10.58;100.00;99339.69;4373223;32;20044;-77
2022/05/08 01:37:19;;;;;;;19.52;7.80;;;;;;;10.52;100.00;99328.84;4373351;32;20039;-78
2022/05/08 01:39:45;;;;;;;9.43;7.30;;;;;;;10.48;100.00;99335.78;4371994;32;20664;-77
2022/05/08 01:42:12;;;;;;;14.90;7.10;;;;;;;10.77;100.00;99376.13;4372842;32;20116;-78
2022/05/08 01:44:38;;;;;;;17.25;7.78;;;;;;;10.75;100.00;99367.47;4374155;32;20043;-77
2022/05/08 01:49:52;;;;;;;15.13;7.55;;;;;;;10.45;100.00;99320.09;4372281;32;20052;-78
2022/05/08 01:52:19;;;;;;;15.68;7.97;;;;;;;10.64;100.00;99354.88;4377022;32;20082;-77
2022/05/08 01:54:46;;;;;;;13.25;7.35;;;;;;;10.68;100.00;99366.81;4361519;32;20061;-78
2022/05/08 01:57:12;;;;;;;15.88;7.50;;;;;;;10.62;100.00;99363.19;4373734;32;20086;-78
2022/05/08 01:59:39;;;;;;;16.33;8.02;;;;;;;10.57;100.00;99359.63;4372997;32;20396;-80
2022/05/08 02:02:06;;;;;;;14.02;7.65;;;;;;;10.60;100.00;99364.50;4357626;32;20046;-78
2022/05/08 02:04:33;;;;;;;16.77;7.35;;;;;;;10.64;100.00;99371.03;4359693;32;20035;-77
2022/05/08 02:06:59;;;;;;;16.98;7.15;;;;;;;10.57;100.00;99370.38;4359856;32;20073;-77
2022/05/08 02:09:26;;;;;;;15.25;7.70;;;;;;;10.58;100.00;99367.44;4371832;32;20483;-78
2022/05/08 02:11:52;;;;;;;14.87;7.37;;;;;;;10.26;100.00;99326.69;4356988;32;20444;-81
2022/05/08 02:14:19;;;;;;;17.37;8.10;;;;;;;10.44;100.00;99361.53;4358840;32;20078;-78
2022/05/08 02:16:45;;;;;;;21.10;8.52;;;;;;;10.07;100.00;99323.37;4367620;32;20027;-77
2022/05/08 02:19:12;;;;;;;10.57;6.45;;;;;;;10.38;100.00;99359.78;4373079;32;20087;-77
2022/05/08 02:21:39;;;;;;;16.85;7.65;;;;;;;10.16;100.00;99325.47;4373236;32;20048;-82
2022/05/08 02:24:05;;;;;;;22.45;7.78;;;;;;;10.40;100.00;99360.37;4370715;32;20036;-77
2022/05/08 02:26:32;;;;;;;20.95;9.80;;;;;;;10.13;100.00;99312.47;4373944;32;20080;-77
2022/05/08 02:28:58;;;;;;;14.82;7.03;;;;;;;10.05;100.00;99310.19;4373325;32;20023;-77
2022/05/08 02:31:25;;;;;;;20.40;7.28;;;;;;;10.35;100.00;99347.66;4373333;32;20035;-77
2022/05/08 02:33:51;;;;;;;13.20;6.62;;;;;;;10.05;100.00;99314.72;4371747;32;20039;-86
2022/05/08 02:36:20;;;;;;;9.40;6.00;;;;;;;10.24;100.00;99353.03;4359199;32;20426;-77
2022/05/08 02:38:46;;;;;;;21.00;7.45;;;;;;;10.19;100.00;99326.84;4373434;32;20036;-77
2022/05/08 02:41:13;;;;;;;15.45;7.18;;;;;;;10.11;100.00;99301.13;4373372;32;20462;-77
2022/05/08 02:43:45;;;;;;;15.43;7.00;;;;;;;10.49;100.00;99358.94;4371610;32;20068;-88
2022/05/08 02:46:12;;;;;;;14.93;7.30;;;;;;;10.45;100.00;99363.19;4357326;32;20472;-77
2022/05/08 02:48:38;;;;;;;21.83;7.62;;;;;;;10.18;100.00;99320.66;4358023;32;20085;-77
2022/05/08 02:51:05;;;;;;;13.43;6.90;;;;;;;10.41;100.00;99358.50;4358472;32;20046;-77
2022/05/08 02:53:32;;;;;;;11.65;7.05;;;;;;;10.53;100.00;99362.78;4343120;33;20086;-77
2022/05/08 02:58:43;;;;;;;12.15;7.07;;;;;;;10.25;100.00;99333.16;4358236;32;20044;-77
2022/05/08 03:01:10;;;;;;;18.35;8.20;;;;;;;10.47;100.00;99361.06;4350565;32;20177;-77
2022/05/08 03:03:36;;;;;;;21.02;8.35;;;;;;;10.54;100.00;99371.66;4371465;32;20040;-86
2022/05/08 03:06:04;;;;;;;11.40;6.65;;;;;;;10.29;100.00;99328.91;4371517;32;20043;-77
2022/05/08 03:08:31;;;;;;;13.60;7.65;;;;;;;10.54;100.00;99367.09;4372396;32;20492;-76
2022/05/08 03:13:43;;;;;;;12.57;7.35;;;;;;;10.24;100.00;99288.44;4355900;32;20145;-80
2022/05/08 03:16:11;;;;;;;20.40;7.87;;;;;;;10.74;100.00;99365.84;4357648;32;20070;-76
2022/05/08 03:18:39;;;;;;;18.90;7.50;;;;;;;10.58;100.00;99326.22;4356592;32;20036;-76
2022/05/08 03:21:06;;;;;;;15.25;7.32;;;;;;;10.90;100.00;99370.44;4357506;32;20474;-76
2022/05/08 03:23:34;;;;;;;12.85;7.03;;;;;;;10.96;100.00;99362.44;4368625;32;20380;-86
2022/05/08 03:26:01;;;;;;;24.55;7.25;;;;;;;10.78;100.00;99334.66;4372175;32;20035;-77
2022/05/08 03:28:28;;;;;;;19.55;6.65;;;;;;;10.84;100.00;99331.00;4361012;32;20036;-77
2022/05/08 03:30:54;;;;;;;20.52;6.70;;;;;;;10.93;100.00;99330.59;4357367;32;20040;-77
2022/05/08 03:33:21;;;;;;;22.67;8.98;;;;;;;11.21;100.00;99368.22;4348011;32;20032;-77
2022/05/08 03:35:47;;;;;;;13.85;7.25;;;;;;;11.15;100.00;99358.44;4356867;32;20047;-88
2022/05/08 03:38:14;;;;;;;20.48;8.57;;;;;;;11.13;100.00;99351.66;4358949;32;20467;-76
2022/05/08 03:40:40;;;;;;;17.60;7.25;;;;;;;11.00;100.00;99336.66;4372500;32;20443;-75
2022/05/08 03:43:07;;;;;;;18.67;6.72;;;;;;;11.33;100.00;99372.72;4372685;32;20043;-77
2022/05/08 03:45:33;;;;;;;13.18;6.87;;;;;;;11.19;100.00;99356.88;4372282;32;20035;-77
2022/05/08 03:47:59;;;;;;;15.85;6.70;;;;;;;11.31;100.00;99375.66;4369746;32;20035;-76
2022/05/08 03:50:28;;;;;;;15.68;6.20;;;;;;;11.29;100.00;99387.75;4371973;32;20461;-77
2022/05/08 03:52:58;;;;;;;10.65;6.35;;;;;;;11.20;100.00;99363.91;4357979;32;20031;-76
2022/05/08 03:55:25;;;;;;;18.35;6.75;;;;;;;11.35;100.00;99386.78;4372821;32;20065;-76
2022/05/08 03:57:52;;;;;;;12.57;6.55;;;;;;;11.41;100.00;99401.97;4358349;32;20044;-77
2022/05/08 04:00:19;;;;;;;12.82;6.05;;;;;;;11.43;100.00;99399.84;4372947;32;20434;-76
2022/05/08 04:02:46;;;;;;;8.98;6.40;;;;;;;11.32;100.00;99354.94;4371517;32;20034;-77
2022/05/08 04:05:13;;;;;;;11.70;7.32;;;;;;;11.77;100.00;99405.19;4373871;32;20061;-80
2022/05/08 04:07:39;;;;;;;16.30;8.30;;;;;;;11.94;100.00;99411.41;4373615;32;20069;-74
2022/05/08 04:10:07;;;;;;;16.12;7.37;;;;;;;12.08;100.00;99411.88;4369454;32;20039;-73
2022/05/08 04:12:35;;;;;;;14.90;7.05;;;;;;;12.28;100.00;99413.19;4357572;32;20101;-74
2022/05/08 04:15:01;;;;;;;14.55;6.80;;;;;;;12.39;100.00;99395.22;4355536;32;20028;-75
2022/05/08 04:17:31;;;;;;;17.12;6.78;;;;;;;12.58;100.00;99415.41;4371028;32;20040;-76
2022/05/08 04:19:58;;;;;;;10.48;6.60;;;;;;;12.64;100.00;99419.81;4368539;32;20065;-74
2022/05/08 04:25:10;;;;;;;11.50;5.97;;;;;;;12.70;100.00;99416.09;4368549;32;20051;-74
2022/05/08 04:27:37;;;;;;;17.90;6.37;;;;;;;12.65;100.00;99405.25;4367109;32;20416;-87
2022/05/08 04:30:04;;;;;;;13.60;7.75;;;;;;;12.69;100.00;99421.75;4369542;32;20043;-72
2022/05/08 04:32:31;;;;;;;11.75;6.53;;;;;;;12.61;100.00;99398.69;4361276;32;20047;-73
2022/05/08 04:35:04;;;;;;;18.90;6.32;;;;;;;12.59;100.00;99400.84;4362182;32;20105;-72
2022/05/08 04:37:31;;;;;;;14.57;7.30;;;;;;;12.78;100.00;99420.25;4368950;32;20078;-89
2022/05/08 04:39:57;;;;;;;14.73;6.53;;;;;;;12.63;100.00;99390.34;4370591;32;20031;-73
2022/05/08 04:42:23;;;;;;;9.60;6.22;;;;;;;12.88;100.00;99424.91;4370917;32;20153;-74
2022/05/08 04:44:50;;;;;;;15.23;7.12;;;;;;;12.77;100.00;99423.19;4369064;32;20032;-77
2022/05/08 04:47:16;;;;;;;11.27;5.45;;;;;;;12.71;100.00;99420.41;4369316;32;20040;-74
2022/05/08 04:49:43;;;;;;;8.00;5.60;;;;;;;12.75;100.00;99428.00;4353833;32;20032;-83
2022/05/08 04:52:10;;;;;;;12.68;7.07;;;;;;;12.64;100.00;99422.50;4368776;32;20059;-74
2022/05/08 04:54:36;;;;;;;8.95;5.70;;;;;;;12.66;100.00;99417.66;4372251;32;20059;-73
2022/05/08 04:57:02;;;;;;;11.02;6.00;;;;;;;12.68;100.00;99437.16;4358367;32;20082;-74
2022/05/08 04:59:29;;;;;;;11.27;7.10;;;;;;;12.76;100.00;99433.16;4373202;32;20106;-73
2022/05/08 05:01:57;;;;;;;12.55;6.55;;;;;;;12.75;100.00;99430.72;4356937;32;20044;-84
2022/05/08 05:04:23;;;;;;;12.55;7.15;;;;;;;12.76;100.00;99448.56;4372618;32;20429;-73
2022/05/08 05:06:49;;;;;;;8.40;6.47;;;;;;;12.83;100.00;99449.19;4361035;32;20429;-79
2022/05/08 05:09:16;;;;;;;9.60;5.43;;;;;;;12.77;100.00;99434.00;4369619;32;20043;-74
2022/05/08 05:11:42;;;;;;;11.68;6.22;;;;;;;12.89;100.00;99454.41;4372055;32;20123;-73
2022/05/08 05:14:08;;;;;;;11.02;5.90;;;;;;;12.95;100.00;99460.66;4373659;32;20086;-79
2022/05/08 05:16:35;;;;;;;14.52;5.78;;;;;;;12.74;100.00;99424.50;4358858;32;20074;-73
2022/05/08 05:19:04;;;;;;;12.40;6.60;;;;;;;12.94;100.00;99456.34;4358691;32;20061;-74
2022/05/08 05:21:31;;;;;;;13.23;5.90;;;;;;;12.80;100.00;99425.38;4355054;32;20043;-73
2022/05/08 05:23:57;;;;;;;8.48;5.47;;;;;;;13.03;100.00;99465.59;4373498;32;20436;-73
2022/05/08 05:26:24;;;;;;;8.38;4.87;;;;;;;13.11;100.00;99460.81;4370468;32;20061;-80
2022/05/08 05:28:51;;;;;;;8.65;4.70;;;;;;;13.21;100.00;99455.50;4372887;32;20056;-73
2022/05/08 05:31:18;;;;;;;8.02;4.20;;;;;;;13.29;100.00;99468.56;4372550;32;20421;-74
2022/05/08 05:33:46;;;;;;;5.03;3.83;;;;;;;13.25;100.00;99462.03;4372327;32;20031;-72
2022/05/08 05:36:13;;;;;;;6.70;4.32;;;;;;;13.39;100.00;99451.66;4371078;32;20081;-81
2022/05/08 05:38:40;;;;;;;8.20;3.58;;;;;;;13.35;100.00;99451.31;4370582;32;20043;-73
2022/05/08 05:41:06;;;;;;;4.82;3.70;;;;;;;13.39;100.00;99436.22;4372940;32;20067;-72
2022/05/08 05:43:34;;;;;;;4.18;2.97;;;;;;;13.26;100.00;99432.03;4373780;32;20072;-73
2022/05/08 05:48:45;;;;;;;3.65;3.33;;;;;;;13.58;100.00;99452.06;4372777;32;20089;-73
2022/05/08 05:51:12;;;;;;;8.77;3.60;;;;;;;13.72;100.00;99461.38;4372621;32;20079;-73
2022/05/08 05:53:38;;;;;;;6.53;3.85;;;;;;;13.86;100.00;99466.31;4358905;32;20364;-72
2022/05/08 05:56:04;;;;;;;3.90;3.15;;;;;;;13.87;100.00;99473.38;4370052;32;20048;-88
2022/05/08 05:58:31;;;;;;;5.25;3.45;;;;;;;13.89;100.00;99482.03;4357310;32;20055;-75
2022/05/08 06:00:57;;;;;;;10.00;3.50;;;;;;;13.80;100.00;99485.25;4370999;32;20042;-76
2022/05/08 06:03:24;;;;;;;5.87;3.53;;;;;;;13.60;100.00;99441.78;4373159;32;20068;-72
2022/05/08 06:05:50;;;;;;;3.92;2.72;;;;;;;13.80;100.00;99450.06;4357840;32;20053;-73
2022/05/08 06:08:16;;;;;;;3.33;2.85;;;;;;;13.97;100.00;99481.53;4370486;32;20376;-77
2022/05/08 06:10:43;;;;;;;2.55;2.30;;;;;;;14.02;100.00;99491.59;4361087;32;20039;-73
2022/05/08 06:13:10;;;;;;;3.85;3.40;;;;;;;13.73;100.00;99452.16;4372752;32;20055;-72
2022/05/08 06:15:36;;;;;;;7.05;3.08;;;;;;;14.03;100.00;99488.63;4372990;32;20058;-73
2022/05/08 06:18:03;;;;;;;5.80;3.70;;;;;;;14.03;100.00;99483.22;4371232;32;20036;-86
2022/05/08 06:20:29;;;;;;;8.45;3.53;;;;;;;13.86;100.00;99453.59;4372731;32;20048;-73
2022/05/08 06:22:55;;;;;;;8.50;3.35;;;;;;;14.20;100.00;99498.47;4371244;32;20040;-73
2022/05/08 06:25:22;;;;;;;5.22;3.22;;;;;;;14.16;100.00;99496.28;4372647;32;20083;-80
2022/05/08 06:27:48;;;;;;;5.60;3.35;;;;;;;14.11;100.00;99492.75;4359204;32;20069;-73
2022/05/08 06:30:15;;;;;;;4.90;3.35;;;;;;;14.17;100.00;99494.41;4371851;32;20051;-82
2022/05/08 06:32:42;;;;;;;6.97;3.92;;;;;;;14.09;100.00;99487.59;4374236;32;20047;-73
2022/05/08 06:35:08;;;;;;;6.87;4.25;;;;;;;14.09;100.00;99493.00;4372948;32;20433;-73
2022/05/08 06:37:34;;;;;;;7.57;4.78;;;;;;;14.23;100.00;99503.38;4373413;32;20036;-73
2022/05/08 06:40:01;;;;;;;6.47;5.60;;;;;;;14.22;100.00;99504.47;4372438;32;20088;-84
2022/05/08 06:42:31;;;;;;;8.80;6.57;;;;;;;14.40;100.00;99504.00;4372492;32;20040;-75
2022/05/08 06:45:00;;;;;;;6.53;5.80;;;;;;;14.33;100.00;99511.56;4371911;32;20039;-74
2022/05/08 06:47:26;;;;;;;9.05;5.85;;;;;;;14.46;100.00;99494.03;4359028;32;20036;-73
2022/05/08 06:49:53;;;;;;;8.93;5.20;;;;;;;14.69;100.00;99512.59;4360022;32;20073;-73
2022/05/08 06:52:19;;;;;;;13.00;5.80;;;;;;;14.88;100.00;99507.47;4376509;32;20031;-73
2022/05/08 06:54:45;;;;;;;5.03;4.53;;;;;;;14.92;100.00;99515.06;4376517;32;20086;-74
2022/05/08 06:57:12;;;;;;;6.75;4.90;;;;;;;14.64;100.00;99477.31;4376416;32;20087;-72
2022/05/08 07:02:23;;;;;;;6.57;4.80;;;;;;;15.17;100.00;99512.44;4376466;32;20037;-72
2022/05/08 07:04:50;;;;;;;6.68;4.05;;;;;;;15.09;100.00;99531.94;4376634;32;20061;-73
2022/05/08 07:07:16;;;;;;;9.13;4.72;;;;;;;15.00;100.00;99492.88;4376439;32;20031;-73
2022/05/08 07:09:43;;;;;;;7.30;4.82;;;;;;;15.11;100.00;99528.97;4374585;32;20388;-76
2022/05/08 07:12:10;;;;;;;6.05;4.62;;;;;;;15.34;100.00;99524.94;4363157;32;20116;-73
2022/05/08 07:14:40;;;;;;;6.28;4.70;;;;;;;15.08;100.00;99498.59;4376278;32;20042;-73
2022/05/08 07:17:14;;;;;;;5.70;4.50;;;;;;;15.24;100.00;99531.97;4362910;32;20031;-73
2022/05/08 07:19:40;;;;;;;8.02;4.70;;;;;;;14.97;100.00;99498.84;4375981;32;20057;-74
2022/05/08 07:22:07;;;;;;;5.97;4.07;;;;;;;15.06;100.00;99527.03;4368578;32;20430;-73
2022/05/08 07:24:33;;;;;;;9.45;6.00;;;;;;;15.22;100.00;99531.44;4376105;32;20065;-73
2022/05/08 07:27:00;;;;;;;7.68;5.30;;;;;;;14.98;100.00;99484.19;4362643;32;20357;-72
2022/05/08 07:29:26;;;;;;;8.63;4.70;;;;;;;14.98;100.00;99495.03;4374702;32;20073;-72
2022/05/08 07:31:53;;;;;;;11.55;4.78;;;;;;;15.35;100.00;99527.41;4375988;32;20055;-73
2022/05/08 07:37:05;;;;;;;8.50;5.30;;;;;;;15.47;100.00;99537.97;4376103;32;20443;-72
2022/05/08 07:39:31;;;;;;;6.82;4.60;;;;;;;15.55;100.00;99540.16;4376124;32;20057;-73
2022/05/08 07:41:59;;;;;;;13.48;5.45;;;;;;;15.58;100.00;99539.62;4375024;32;20061;-73
2022/05/08 07:44:26;;;;;;;6.55;4.90;;;;;;;15.23;100.00;99505.94;4362611;32;20089;-72
2022/05/08 07:46:52;;;;;;;8.68;5.97;;;;;;;15.39;100.00;99509.47;4362329;32;20220;-71
2022/05/08 07:49:18;;;;;;;9.35;4.82;;;;;;;15.51;100.00;99547.22;4376167;32;20031;-71
2022/05/08 07:51:45;;;;;;;7.30;5.45;;;;;;;15.54;100.00;99535.00;4374520;32;20039;-71
2022/05/08 07:54:12;;;;;;;7.60;5.30;;;;;;;15.74;100.00;99532.28;4375935;32;20389;-71
2022/05/08 07:56:39;;;;;;;6.20;5.15;;;;;;;15.78;100.00;99532.62;4375816;32;20039;-71
2022/05/08 07:59:06;;;;;;;6.75;4.90;;;;;;;15.81;100.00;99526.63;4361273;32;20380;-71
2022/05/08 08:01:32;;;;;;;6.97;5.03;;;;;;;15.76;100.00;99532.03;4374155;32;20108;-71
2022/05/08 08:03:58;;;;;;;7.05;4.90;;;;;;;15.58;100.00;99501.62;4362208;32;20390;-72
2022/05/08 08:06:25;;;;;;;4.62;4.20;;;;;;;15.64;100.00;99497.03;4375737;32;20047;-72
2022/05/08 08:08:51;;;;;;;6.75;4.50;;;;;;;15.70;100.00;99528.50;4362482;32;20057;-72
2022/05/08 08:11:18;;;;;;;4.70;4.20;;;;;;;15.77;100.00;99525.56;4375622;32;20088;-72
2022/05/08 08:13:44;;;;;;;6.40;4.93;;;;;;;15.88;100.00;99527.19;4362163;32;20053;-71
2022/05/08 08:16:10;;;;;;;4.97;4.47;;;;;;;16.02;100.00;99529.31;4375682;32;20043;-73
2022/05/08 08:18:49;;;;;;;7.60;4.82;;;;;;;16.18;100.00;99530.94;4374983;32;20015;-72
2022/05/08 08:21:16;;;;;;;6.03;3.90;;;;;;;16.41;100.00;99528.72;4375491;32;20061;-71
2022/05/08 08:23:44;;;;;;;7.10;4.05;;;;;;;16.58;100.00;99534.66;4375602;32;20055;-71
2022/05/08 08:30:05;;;;;;;5.00;4.43;;;;;;;16.83;100.00;99535.63;4379102;32;20061;-71
2022/05/08 08:32:32;;;;;;;8.20;3.60;;;;;;;16.74;100.00;99504.66;4351034;32;20468;-71
2022/05/08 08:34:58;;;;;;;5.25;3.97;;;;;;;17.05;100.00;99536.09;4377252;32;20062;-73
2022/05/08 08:37:24;;;;;;;4.15;3.72;;;;;;;17.19;100.00;99543.66;4365231;32;20020;-72
2022/05/08 08:39:51;;;;;;;6.03;4.00;;;;;;;17.25;100.00;99547.97;4378413;32;20346;-72
2022/05/08 08:42:31;;;;;;;10.00;4.50;;;;;;;17.19;100.00;99538.22;4376777;32;20167;-73
2022/05/08 08:48:24;;;;;;;3.78;3.47;;;;;;;17.17;100.00;99519.44;4378102;32;20062;-73
2022/05/08 08:50:51;;;;;;;4.05;3.70;;;;;;;17.34;100.00;99518.25;4364853;32;20147;-73
2022/05/08 08:53:18;;;;;;;7.03;3.08;;;;;;;17.46;100.00;99539.69;4378357;32;20027;-72
2022/05/08 08:55:48;;;;;;;4.87;3.03;;;;;;;17.59;100.00;99547.19;4363162;32;20031;-74
2022/05/08 09:01:57;;;;;;;5.00;2.90;;;;;;;17.95;100.00;99560.56;4377688;32;20054;-73
2022/05/08 09:04:25;;;;;;;4.22;2.90;;;;;;;18.11;100.00;99564.78;4379964;32;20044;-71
2022/05/08 09:06:51;;;;;;;6.97;3.03;;;;;;;17.72;100.00;99527.47;4384379;32;20098;-72
2022/05/08 09:09:43;;;;;;;3.50;3.20;;;;;;;17.76;100.00;99520.37;4385276;32;20159;-72
2022/05/08 09:12:16;;;;;;;4.95;3.30;;;;;;;18.04;100.00;99558.84;4382806;32;20095;-71
2022/05/08 09:14:42;;;;;;;5.82;3.15;;;;;;;18.09;100.00;99558.81;4388845;32;20083;-72
2022/05/08 09:17:08;;;;;;;2.72;2.53;;;;;;;17.95;100.00;99527.87;4381244;32;20070;-71
2022/05/08 09:19:39;;;;;;;4.20;3.15;;;;;;;18.11;100.00;99537.53;4394959;32;20097;-72
2022/05/08 09:22:15;;;;;;;4.12;3.28;;;;;;;18.21;100.00;99557.63;4394240;32;20054;-71
2022/05/08 09:24:53;;;;;;;12.60;3.30;;;;;;;18.11;100.00;99575.69;4383832;32;20468;-72
2022/05/08 09:27:19;;;;;;;4.43;4.03;;;;;;;17.76;100.00;99557.72;4377058;32;20040;-71
2022/05/08 09:33:21;;;;;;;4.97;3.72;;;;;;;17.57;100.00;99533.06;4378272;32;20337;-71
2022/05/08 09:35:48;;;;;;;4.95;3.87;;;;;;;17.58;100.00;99562.72;4377608;32;20055;-71
2022/05/08 09:38:15;;;;;;;6.05;3.37;;;;;;;17.52;100.00;99568.47;4377147;32;20167;-72
2022/05/08 09:40:41;;;;;;;4.90;3.45;;;;;;;17.09;100.00;99532.81;4376829;32;20061;-73
2022/05/08 09:43:30;;;;;;;6.10;3.50;;;;;;;17.34;100.00;99573.50;4377734;32;20080;-72
2022/05/08 09:45:58;;;;;;;4.37;2.20;;;;;;;17.12;100.00;99543.13;4377404;32;20011;-71
2022/05/08 09:48:26;;;;;;;5.55;2.55;;;;;;;17.13;100.00;99578.22;4377273;32;20445;-72
2022/05/08 09:50:57;;;;;;;3.20;2.85;;;;;;;17.22;100.00;99573.84;4377589;32;20080;-72
2022/05/08 09:53:24;;;;;;;4.07;1.60;;;;;;;17.17;100.00;99543.13;4377419;32;20040;-72
2022/05/08 09:55:52;;;;;;;2.85;2.20;;;;;;;17.35;100.00;99537.00;4377325;32;20065;-72
2022/05/08 09:58:19;;;;;;;2.08;1.75;;;;;;;17.72;100.00;99568.31;4377372;32;20058;-71
2022/05/08 10:00:47;;;;;;;3.92;1.90;;;;;;;17.60;100.00;99541.47;4375794;32;20028;-70
2022/05/08 10:03:15;;;;;;;6.82;1.80;;;;;;;17.95;100.00;99571.47;4377197;32;20051;-70
2022/05/08 10:05:42;;;;;;;2.85;1.77;;;;;;;17.60;100.00;99510.72;4363674;32;20182;-70
2022/05/08 10:08:18;;;;;;;9.90;1.98;;;;;;;18.00;100.00;99563.25;4377452;32;20374;-71
2022/05/08 10:13:58;;;;;;;3.58;2.15;;;;;;;17.85;100.00;99539.62;4377074;32;20015;-71
2022/05/08 10:16:45;;;;;;;2.20;1.62;;;;;;;17.93;100.00;99565.47;4376945;32;20041;-71
2022/05/08 10:19:17;;;;;;;2.75;2.55;;;;;;;17.84;100.00;99561.69;4377052;32;20024;-71
2022/05/08 10:21:53;;;;;;;2.42;2.22;;;;;;;17.79;100.00;99525.25;4363428;32;20043;-71
2022/05/08 10:24:56;;;;;;;1.95;1.45;;;;;;;17.53;100.00;99526.56;4363622;32;20438;-71
2022/05/08 10:27:31;;;;;;;1.98;1.52;;;;;;;17.69;100.00;99562.66;4363464;32;20455;-71
2022/05/08 10:29:57;;;;;;;8.65;1.85;;;;;;;17.76;100.00;99534.00;4376875;32;20016;-71
2022/05/08 10:32:32;;;;;;;1.83;1.65;;;;;;;17.85;100.00;99527.94;4376730;32;20043;-71
2022/05/08 10:35:15;;;;;;;2.25;2.05;;;;;;;18.14;100.00;99580.56;4376465;32;20380;-73
2022/05/08 10:38:12;;;;;;;1.83;1.55;;;;;;;18.19;100.00;99559.78;4376768;32;20071;-73
2022/05/08 10:40:46;;;;;;;3.60;2.03;;;;;;;18.28;100.00;99558.87;4377077;32;20218;-72
2022/05/08 10:43:12;;;;;;;4.68;1.95;;;;;;;18.22;100.00;99553.78;4376850;32;20058;-72
2022/05/08 10:45:41;;;;;;;6.62;2.17;;;;;;;18.43;100.00;99527.13;4377029;32;20360;-72
2022/05/08 10:48:13;;;;;;;2.22;1.70;;;;;;;18.53;100.00;99557.00;4376730;32;20035;-72
2022/05/08 10:50:56;;;;;;;2.80;1.50;;;;;;;18.62;100.00;99529.88;4376448;32;20024;-72
2022/05/08 10:53:35;;;;;;;4.22;2.33;;;;;;;18.66;100.00;99530.94;4375454;32;20019;-71
2022/05/08 10:56:05;;;;;;;5.90;1.77;;;;;;;18.55;100.00;99524.78;4376531;32;20031;-72
2022/05/08 10:58:33;;;;;;;4.15;1.83;;;;;;;19.11;100.00;99542.41;4376480;32;20071;-72
2022/05/08 11:01:03;;;;;;;7.60;2.85;;;;;;;19.26;100.00;99522.28;4375378;32;20376;-72
2022/05/08 11:03:30;;;;;;;4.18;1.58;;;;;;;19.54;100.00;99553.25;4375269;32;20069;-72
2022/05/08 11:05:57;;;;;;;3.90;1.70;;;;;;;19.36;100.00;99521.31;4374751;32;20044;-72
2022/05/08 11:08:29;;;;;;;1.87;1.70;;;;;;;20.01;100.00;99558.00;4375041;32;20032;-72
2022/05/08 11:11:02;;;;;;;2.72;1.92;;;;;;;20.53;100.00;99525.88;4362646;32;20396;-73
2022/05/08 11:13:46;;;;;;;8.20;1.75;;;;;;;20.48;100.00;99542.38;4376289;32;20019;-72
2022/05/08 11:16:34;;;;;;;3.83;1.52;;;;;;;20.63;100.00;99519.38;4376336;32;20023;-73
2022/05/08 11:19:04;;;;;;;1.62;1.50;;;;;;;20.95;100.00;99553.22;4376068;32;20101;-73
2022/05/08 11:21:31;;;;;;;1.95;1.80;;;;;;;20.50;100.00;99548.34;4362540;32;20463;-75
2022/05/08 11:23:58;;;;;;;3.85;1.67;;;;;;;20.56;100.00;99522.53;4375924;32;20035;-73
2022/05/08 11:26:30;;;;;;;3.75;3.08;;;;;;;20.60;100.00;99518.09;4375975;32;20197;-73
2022/05/08 11:28:57;;;;;;;2.03;1.70;;;;;;;21.22;100.00;99553.22;4362280;32;20344;-73
2022/05/08 11:31:24;;;;;;;6.95;1.92;;;;;;;21.24;100.00;99555.62;4374921;32;20443;-73
2022/05/08 11:36:40;;;;;;;4.72;2.08;;;;;;;21.23;100.00;99543.84;4375877;32;20450;-73
2022/05/08 11:39:13;;;;;;;6.95;1.85;;;;;;;20.88;100.00;99550.91;4375717;32;20028;-73
2022/05/08 11:41:44;;;;;;;5.47;1.92;;;;;;;20.17;100.00;99523.00;4375903;32;20019;-73
2022/05/08 11:44:12;;;;;;;4.47;2.17;;;;;;;19.91;100.00;99554.34;4375182;32;20068;-73
2022/05/08 11:46:43;;;;;;;2.72;2.25;;;;;;;19.56;100.00;99542.84;4374684;32;20035;-73
2022/05/08 11:49:25;;;;;;;2.40;1.73;;;;;;;19.31;100.00;99546.78;4375941;32;20447;-73
2022/05/08 11:51:57;;;;;;;4.12;1.90;;;;;;;19.66;100.00;99546.53;4375952;32;20446;-73
2022/05/08 11:54:27;;;;;;;2.30;2.10;;;;;;;19.61;100.00;99503.72;4375916;32;20023;-73
2022/05/08 11:57:16;;;;;;;2.07;1.90;;;;;;;19.88;100.00;99511.22;4375732;32;20027;-73
2022/05/08 12:00:04;;;;;;;2.25;1.80;;;;;;;20.24;100.00;99532.44;4375658;32;20012;-72
2022/05/08 12:02:41;;;;;;;2.10;1.98;;;;;;;19.90;100.00;99540.97;4361244;32;20043;-72
2022/05/08 12:05:24;;;;;;;2.72;2.45;;;;;;;19.68;100.00;99533.38;4362758;32;20438;-72
2022/05/08 12:07:51;;;;;;;3.62;2.25;;;;;;;20.19;100.00;99529.00;4375597;32;20019;-73